createdAt,value
2022-10-18T00:00:54.037Z,7.65
2022-10-18T00:03:20.838Z,6.85
2022-10-18T00:05:49.287Z,6.78
2022-10-18T00:08:17.049Z,7.10
2022-10-18T00:10:44.101Z,6.32
2022-10-18T00:13:11.048Z,6.53
2022-10-18T00:15:37.679Z,7.43
2022-10-18T00:18:04.402Z,7.53
2022-10-18T00:20:31.234Z,6.05
2022-10-18T00:22:57.859Z,5.85
2022-10-18T00:25:24.460Z,6.53
2022-10-18T00:27:51.035Z,6.78
2022-10-18T00:30:17.643Z,6.55
2022-10-18T00:32:44.277Z,6.88
2022-10-18T00:35:10.940Z,6.25
2022-10-18T00:37:37.506Z,6.38
2022-10-18T00:40:06.606Z,6.22
2022-10-18T00:42:36.393Z,7.75
2022-10-18T00:45:24.270Z,6.72
2022-10-18T00:48:04.276Z,7.43
2022-10-18T00:50:34.893Z,7.25
2022-10-18T00:53:06.585Z,7.75
2022-10-18T00:55:34.237Z,7.47
2022-10-18T00:58:01.952Z,6.82
2022-10-18T01:00:28.540Z,7.03
2022-10-18T01:02:55.832Z,7.88
2022-10-18T01:05:22.494Z,7.55
2022-10-18T01:08:01.010Z,6.93
2022-10-18T01:10:41.618Z,7.22
2022-10-18T01:13:25.593Z,7.15
2022-10-18T01:16:07.495Z,7.65
2022-10-18T01:18:52.407Z,8.55
2022-10-18T01:21:55.447Z,7.20
2022-10-18T01:24:59.319Z,7.57
2022-10-18T01:27:57.392Z,7.35
2022-10-18T01:30:50.171Z,7.05
2022-10-18T01:33:34.308Z,7.90
2022-10-18T01:36:18.020Z,8.15
2022-10-18T01:38:47.324Z,7.57
2022-10-18T01:41:16.582Z,6.07
2022-10-18T01:43:46.556Z,7.50
2022-10-18T01:46:17.811Z,8.98
2022-10-18T01:48:44.532Z,5.57
2022-10-18T01:51:11.466Z,7.22
2022-10-18T01:53:38.174Z,7.07
2022-10-18T01:56:20.865Z,9.13
2022-10-18T01:59:10.495Z,8.45
2022-10-18T02:02:01.565Z,7.82
2022-10-18T02:04:57.118Z,8.15
2022-10-18T02:07:35.759Z,6.88
2022-10-18T02:10:18.087Z,7.78
2022-10-18T02:12:48.041Z,8.23
2022-10-18T02:15:21.769Z,7.55
2022-10-18T02:17:48.366Z,7.10
2022-10-18T02:20:20.370Z,8.80
2022-10-18T02:22:49.990Z,6.93
2022-10-18T02:25:28.330Z,7.13
2022-10-18T02:27:55.508Z,8.25
2022-10-18T02:30:33.260Z,8.20
2022-10-18T02:33:12.825Z,9.27
2022-10-18T02:35:51.122Z,7.22
2022-10-18T02:38:20.231Z,9.10
2022-10-18T02:40:46.807Z,9.05
2022-10-18T02:46:22.735Z,8.57
2022-10-18T02:48:49.768Z,9.65
2022-10-18T02:51:16.819Z,9.02
2022-10-18T02:53:43.394Z,9.18
2022-10-18T02:56:09.965Z,9.18
2022-10-18T02:58:36.517Z,11.43
2022-10-18T03:01:03.670Z,7.65
2022-10-18T03:03:30.345Z,9.60
2022-10-18T03:05:56.989Z,8.90
2022-10-18T03:08:23.693Z,7.93
2022-10-18T03:10:50.301Z,9.23
2022-10-18T03:13:16.957Z,9.18
2022-10-18T03:15:43.587Z,8.88
2022-10-18T03:18:10.250Z,9.77
2022-10-18T03:20:36.975Z,9.13
2022-10-18T03:23:03.682Z,9.32
2022-10-18T03:25:30.300Z,9.30
2022-10-18T03:27:56.882Z,8.10
2022-10-18T03:30:23.599Z,7.30
2022-10-18T03:32:50.342Z,9.18
2022-10-18T03:35:17.154Z,10.32
2022-10-18T03:37:43.741Z,8.68
2022-10-18T03:40:10.770Z,8.70
2022-10-18T03:42:37.585Z,9.65
2022-10-18T03:45:04.963Z,9.88
2022-10-18T03:47:31.561Z,9.15
2022-10-18T03:49:58.165Z,8.00
2022-10-18T03:52:24.993Z,7.80
2022-10-18T03:54:51.620Z,9.35
2022-10-18T03:57:18.200Z,8.88
2022-10-18T03:59:44.808Z,7.80
2022-10-18T04:02:11.443Z,7.18
2022-10-18T04:04:37.994Z,4.72
2022-10-18T04:07:04.595Z,5.72
2022-10-18T04:09:31.184Z,5.30
2022-10-18T04:11:57.766Z,5.88
2022-10-18T04:14:24.349Z,5.82
2022-10-18T04:16:50.950Z,5.43
2022-10-18T04:19:17.724Z,6.70
2022-10-18T04:21:44.406Z,6.03
2022-10-18T04:24:10.978Z,6.30
2022-10-18T04:26:37.548Z,5.25
2022-10-18T04:29:04.480Z,5.40
2022-10-18T04:31:31.314Z,4.65
2022-10-18T04:33:57.970Z,4.82
2022-10-18T04:36:24.700Z,5.13
2022-10-18T04:38:51.436Z,5.30
2022-10-18T04:41:18.030Z,6.00
2022-10-18T04:46:16.189Z,4.90
2022-10-18T04:48:42.778Z,4.75
2022-10-18T04:51:09.332Z,4.07
2022-10-18T04:53:35.932Z,4.88
2022-10-18T04:56:02.515Z,4.20
2022-10-18T04:58:29.118Z,4.70
2022-10-18T05:00:55.924Z,4.85
2022-10-18T05:03:22.598Z,4.93
2022-10-18T05:06:01.199Z,4.90
2022-10-18T05:08:29.501Z,5.65
2022-10-18T05:10:56.219Z,4.93
2022-10-18T05:13:22.872Z,6.15
2022-10-18T05:15:49.865Z,5.50
2022-10-18T05:18:16.573Z,5.57
2022-10-18T05:20:43.196Z,5.47
2022-10-18T05:23:12.760Z,5.25
2022-10-18T05:25:40.660Z,6.15
2022-10-18T05:28:11.083Z,5.63
2022-10-18T05:30:47.902Z,5.70
2022-10-18T05:33:14.494Z,6.20
2022-10-18T05:35:41.090Z,5.50
2022-10-18T05:38:07.849Z,6.47
2022-10-18T05:40:34.602Z,6.45
2022-10-18T05:43:01.159Z,6.45
2022-10-18T05:45:27.728Z,6.45
2022-10-18T05:47:54.869Z,6.15
2022-10-18T05:50:21.652Z,5.53
2022-10-18T05:52:48.258Z,5.63
2022-10-18T05:55:14.937Z,5.25
2022-10-18T05:57:41.528Z,5.82
2022-10-18T06:00:09.420Z,6.40
2022-10-18T06:02:38.466Z,5.10
2022-10-18T06:05:05.392Z,6.20
2022-10-18T06:07:32.230Z,7.00
2022-10-18T06:09:59.002Z,6.80
2022-10-18T06:12:25.692Z,7.15
2022-10-18T06:14:52.292Z,5.88
2022-10-18T06:17:18.952Z,7.15
2022-10-18T06:19:45.760Z,5.75
2022-10-18T06:22:12.864Z,6.13
2022-10-18T06:24:39.465Z,6.03
2022-10-18T06:27:09.136Z,6.57
2022-10-18T06:29:37.799Z,6.40
2022-10-18T06:32:06.011Z,7.00
2022-10-18T06:34:33.634Z,6.60
2022-10-18T06:37:00.480Z,6.35
2022-10-18T06:39:27.458Z,6.45
2022-10-18T06:41:54.200Z,5.88
2022-10-18T06:44:21.595Z,6.22
2022-10-18T06:46:49.349Z,7.38
2022-10-18T06:49:18.986Z,6.82
2022-10-18T06:51:46.318Z,7.10
2022-10-18T06:54:17.600Z,6.70
2022-10-18T06:56:45.001Z,7.05
2022-10-18T06:59:11.587Z,6.85
2022-10-18T07:01:38.314Z,7.80
2022-10-18T07:04:05.055Z,6.47
2022-10-18T07:06:31.737Z,6.22
2022-10-18T07:08:58.345Z,7.40
2022-10-18T07:11:26.854Z,8.10
2022-10-18T07:14:00.701Z,6.63
2022-10-18T07:16:27.316Z,6.80
2022-10-18T07:18:53.925Z,6.82
2022-10-18T07:21:25.442Z,7.20
2022-10-18T07:23:53.160Z,7.72
2022-10-18T07:26:25.808Z,7.25
2022-10-18T07:28:57.946Z,6.55
2022-10-18T07:31:25.395Z,7.43
2022-10-18T07:33:53.156Z,7.88
2022-10-18T07:36:22.234Z,6.60
2022-10-18T07:38:49.679Z,6.68
2022-10-18T07:41:16.304Z,7.38
2022-10-18T07:43:49.082Z,7.35
2022-10-18T07:46:19.247Z,6.90
2022-10-18T07:48:46.057Z,7.63
2022-10-18T07:51:12.969Z,6.88
2022-10-18T07:53:39.993Z,8.68
2022-10-18T07:56:15.726Z,8.40
2022-10-18T07:58:43.925Z,8.05
2022-10-18T08:01:11.298Z,8.65
2022-10-18T08:03:38.816Z,8.20
2022-10-18T08:06:09.128Z,9.15
2022-10-18T08:08:38.636Z,8.98
2022-10-18T08:11:08.868Z,9.77
2022-10-18T08:13:35.834Z,8.88
2022-10-18T08:16:08.795Z,10.05
2022-10-18T08:18:36.428Z,9.88
2022-10-18T08:21:06.056Z,10.30
2022-10-18T08:23:32.829Z,10.13
2022-10-18T08:26:12.096Z,10.88
2022-10-18T08:28:39.489Z,9.02
2022-10-18T08:31:11.109Z,9.57
2022-10-18T08:33:39.670Z,9.48
2022-10-18T08:36:10.834Z,10.70
2022-10-18T08:38:39.692Z,10.02
2022-10-18T08:41:36.698Z,11.60
2022-10-18T08:44:29.598Z,11.25
2022-10-18T08:47:14.913Z,10.02
2022-10-18T08:49:58.071Z,10.23
2022-10-18T08:52:30.757Z,11.00
2022-10-18T08:55:10.152Z,10.55
2022-10-18T08:57:36.751Z,11.88
2022-10-18T09:00:16.420Z,12.48
2022-10-18T09:03:26.857Z,12.85
2022-10-18T09:06:05.166Z,11.95
2022-10-18T09:09:00.175Z,13.82
2022-10-18T09:11:42.007Z,13.02
2022-10-18T09:14:26.335Z,14.15
2022-10-18T09:17:18.421Z,17.02
2022-10-18T09:20:13.605Z,16.58
2022-10-18T09:23:30.701Z,16.55
2022-10-18T09:26:15.759Z,16.30
2022-10-18T09:29:28.269Z,15.77
2022-10-18T09:32:13.035Z,16.08
2022-10-18T09:34:52.389Z,14.88
2022-10-18T09:37:21.454Z,15.25
2022-10-18T09:39:50.641Z,13.43
2022-10-18T09:42:39.263Z,15.68
2022-10-18T09:45:27.676Z,13.25
2022-10-18T09:48:12.422Z,13.10
2022-10-18T09:51:03.168Z,13.95
2022-10-18T09:53:41.482Z,14.75
2022-10-18T09:56:25.450Z,17.50
2022-10-18T09:58:52.311Z,16.98
2022-10-18T10:01:29.931Z,20.52
2022-10-18T10:03:56.542Z,21.95
2022-10-18T10:06:32.257Z,23.50
2022-10-18T10:09:14.611Z,21.73
2022-10-18T10:11:51.925Z,21.33
2022-10-18T10:14:24.065Z,23.17
2022-10-18T10:17:19.693Z,23.50
2022-10-18T10:20:20.387Z,23.40
2022-10-18T10:22:49.002Z,25.95
2022-10-18T10:25:38.358Z,26.42
2022-10-18T10:28:22.469Z,27.00
2022-10-18T10:30:49.703Z,27.05
2022-10-18T10:33:37.974Z,27.33
2022-10-18T10:36:17.324Z,26.83
2022-10-18T10:38:44.161Z,30.17
2022-10-18T10:41:23.428Z,33.22
2022-10-18T10:43:51.103Z,34.47
2022-10-18T10:46:20.184Z,35.45
2022-10-18T10:49:08.426Z,34.63
2022-10-18T10:51:41.015Z,35.83
2022-10-18T10:54:15.672Z,37.60
2022-10-18T10:57:04.842Z,38.60
2022-10-18T10:59:43.667Z,37.03
2022-10-18T11:02:19.203Z,37.25
2022-10-18T11:07:39.439Z,34.42
2022-10-18T11:11:13.632Z,32.67
2022-10-18T11:14:01.916Z,29.20
2022-10-18T11:16:53.795Z,26.13
2022-10-18T11:19:41.205Z,26.10
2022-10-18T11:22:16.100Z,22.15
2022-10-18T11:24:43.124Z,23.60
2022-10-18T11:27:38.931Z,21.83
2022-10-18T11:30:40.320Z,21.85
2022-10-18T11:33:56.183Z,22.90
2022-10-18T11:37:28.051Z,22.83
2022-10-18T11:40:30.984Z,20.02
2022-10-18T11:43:21.868Z,20.30
2022-10-18T11:46:19.279Z,18.88
2022-10-18T11:49:09.213Z,17.95
2022-10-18T11:52:08.392Z,18.42
2022-10-18T11:55:16.469Z,15.18
2022-10-18T11:58:15.126Z,21.40
2022-10-18T12:00:49.185Z,24.92
2022-10-18T12:03:41.780Z,22.65
2022-10-18T12:06:20.775Z,18.20
2022-10-18T12:08:54.616Z,15.82
2022-10-18T12:11:28.688Z,15.88
2022-10-18T12:14:00.909Z,16.02
2022-10-18T12:16:50.571Z,16.52
2022-10-18T12:19:26.608Z,13.98
2022-10-18T12:22:02.615Z,13.98
2022-10-18T12:24:31.961Z,13.18
2022-10-18T12:27:01.819Z,12.98
2022-10-18T12:29:46.683Z,12.95
2022-10-18T12:32:24.714Z,12.68
2022-10-18T12:35:20.466Z,11.70
2022-10-18T12:38:17.829Z,11.23
2022-10-18T12:40:50.791Z,11.70
2022-10-18T12:43:24.301Z,14.68
2022-10-18T12:46:01.259Z,14.02
2022-10-18T12:48:42.528Z,14.30
2022-10-18T12:51:19.088Z,12.35
2022-10-18T12:54:00.321Z,13.23
2022-10-18T12:56:30.616Z,10.45
2022-10-18T12:59:15.326Z,12.07
2022-10-18T13:01:51.213Z,11.02
2022-10-18T13:04:27.106Z,9.57
2022-10-18T13:07:05.445Z,9.13
2022-10-18T13:09:37.961Z,9.73
2022-10-18T13:12:10.512Z,9.60
2022-10-18T13:15:12.431Z,9.70
2022-10-18T13:18:09.661Z,9.25
2022-10-18T13:21:11.893Z,8.23
2022-10-18T13:24:14.717Z,8.52
2022-10-18T13:26:51.133Z,8.95
2022-10-18T13:30:11.567Z,8.65
2022-10-18T13:33:15.315Z,7.53
2022-10-18T13:35:57.073Z,7.28
2022-10-18T13:38:47.115Z,7.53
2022-10-18T13:41:20.868Z,6.55
2022-10-18T13:43:54.061Z,5.47
2022-10-18T13:46:44.012Z,6.07
2022-10-18T13:49:38.457Z,6.00
2022-10-18T13:53:01.010Z,6.05
2022-10-18T13:56:22.228Z,6.95
2022-10-18T13:59:38.115Z,6.95
2022-10-18T14:02:49.895Z,6.00
2022-10-18T14:05:25.665Z,6.40
2022-10-18T14:08:00.114Z,6.00
2022-10-18T14:11:01.419Z,7.47
2022-10-18T14:13:47.042Z,6.25
2022-10-18T14:16:54.212Z,5.72
2022-10-18T14:19:30.052Z,7.40
2022-10-18T14:22:25.184Z,6.35
2022-10-18T14:24:55.953Z,6.05
2022-10-18T14:27:32.994Z,5.50
2022-10-18T14:30:26.179Z,7.30
2022-10-18T14:32:54.451Z,6.85
2022-10-18T14:35:33.584Z,7.13
2022-10-18T14:38:02.162Z,7.32
2022-10-18T14:40:40.218Z,7.28
2022-10-18T14:43:08.218Z,7.90
2022-10-18T14:45:35.019Z,7.15
2022-10-18T14:48:14.947Z,8.07
2022-10-18T14:50:44.454Z,6.65
2022-10-18T14:53:21.876Z,7.45
2022-10-18T14:56:04.377Z,7.13
2022-10-18T14:58:32.545Z,5.85
2022-10-18T15:00:59.778Z,4.90
2022-10-18T15:03:28.327Z,5.10
2022-10-18T15:06:02.014Z,5.00
2022-10-18T15:08:43.069Z,4.05
2022-10-18T15:11:14.455Z,3.83
2022-10-18T15:14:08.664Z,4.20
2022-10-18T15:16:38.602Z,3.97
2022-10-18T15:19:15.276Z,4.70
2022-10-18T15:22:19.749Z,4.28
2022-10-18T15:24:43.967Z,4.70
2022-10-18T15:27:32.009Z,3.92
2022-10-18T15:30:09.136Z,4.57
2022-10-18T15:32:37.674Z,5.72
2022-10-18T15:35:15.646Z,4.90
2022-10-18T15:37:46.159Z,4.18
2022-10-18T15:40:31.787Z,4.50
2022-10-18T15:43:27.621Z,5.45
2022-10-18T15:46:01.597Z,4.90
2022-10-18T15:48:42.186Z,5.28
2022-10-18T15:51:33.889Z,3.20
2022-10-18T15:54:00.486Z,3.50
2022-10-18T15:56:38.218Z,3.75
2022-10-18T15:59:30.844Z,3.30
2022-10-18T16:01:57.886Z,3.03
2022-10-18T16:04:26.425Z,3.55
2022-10-18T16:06:55.413Z,3.03
2022-10-18T16:09:24.568Z,3.30
2022-10-18T16:11:56.378Z,3.35
2022-10-18T16:14:25.643Z,3.92
2022-10-18T16:17:02.714Z,3.30
2022-10-18T16:19:30.120Z,3.60
2022-10-18T16:21:56.980Z,3.33
2022-10-18T16:24:24.284Z,3.88
2022-10-18T16:26:51.776Z,4.32
2022-10-18T16:29:25.476Z,3.25
2022-10-18T16:31:55.167Z,3.80
2022-10-18T16:34:22.755Z,4.43
2022-10-18T16:36:50.465Z,3.63
2022-10-18T16:39:19.220Z,4.18
2022-10-18T16:41:46.424Z,4.38
2022-10-18T16:44:13.278Z,4.53
2022-10-18T16:46:41.005Z,4.45
2022-10-18T16:49:23.722Z,4.20
2022-10-18T16:51:52.503Z,4.63
2022-10-18T16:54:19.502Z,5.55
2022-10-18T16:56:47.713Z,3.92
2022-10-18T16:59:27.823Z,4.70
2022-10-18T17:01:54.873Z,4.70
2022-10-18T17:04:21.683Z,3.65
2022-10-18T17:06:49.152Z,4.28
2022-10-18T17:09:16.337Z,4.30
2022-10-18T17:11:43.060Z,6.30
2022-10-18T17:14:09.683Z,4.50
2022-10-18T17:16:38.588Z,5.20
2022-10-18T17:19:10.217Z,4.28
2022-10-18T17:21:36.908Z,4.20
2022-10-18T17:24:05.865Z,5.75
2022-10-18T17:26:33.683Z,4.75
2022-10-18T17:29:04.732Z,4.82
2022-10-18T17:31:32.391Z,4.78
2022-10-18T17:34:01.529Z,5.47
2022-10-18T17:36:29.784Z,5.00
2022-10-18T17:38:56.466Z,4.82
2022-10-18T17:41:23.648Z,4.85
2022-10-18T17:43:50.314Z,5.95
2022-10-18T17:46:17.872Z,5.78
2022-10-18T17:48:45.226Z,4.40
2022-10-18T17:51:15.475Z,5.32
2022-10-18T17:53:42.500Z,6.47
2022-10-18T17:56:11.251Z,7.55
2022-10-18T17:58:37.946Z,6.32
2022-10-18T18:01:19.380Z,7.05
2022-10-18T18:03:47.745Z,5.53
2022-10-18T18:06:30.909Z,5.72
2022-10-18T18:08:59.282Z,6.22
2022-10-18T18:11:25.979Z,5.53
2022-10-18T18:13:55.639Z,5.22
2022-10-18T18:16:26.978Z,6.65
2022-10-18T18:18:57.367Z,6.70
2022-10-18T18:21:25.818Z,7.55
2022-10-18T18:23:52.694Z,6.72
2022-10-18T18:26:20.461Z,5.07
2022-10-18T18:28:47.481Z,7.18
2022-10-18T18:31:23.430Z,7.28
2022-10-18T18:36:23.576Z,6.22
2022-10-18T18:38:55.517Z,6.30
2022-10-18T18:41:26.348Z,7.30
2022-10-18T18:43:59.252Z,9.05
2022-10-18T18:46:28.813Z,8.23
2022-10-18T18:48:58.270Z,8.32
2022-10-18T18:51:25.446Z,7.57
2022-10-18T18:53:52.409Z,6.63
2022-10-18T18:56:22.765Z,7.45
2022-10-18T18:58:53.150Z,7.45
2022-10-18T19:01:28.990Z,8.50
2022-10-18T19:06:30.634Z,7.78
2022-10-18T19:09:04.534Z,6.90
2022-10-18T19:11:35.028Z,8.13
2022-10-18T19:14:03.297Z,7.97
2022-10-18T19:16:36.288Z,7.65
2022-10-18T19:19:10.206Z,7.30
2022-10-18T19:21:44.294Z,7.00
2022-10-18T19:24:11.003Z,7.22
2022-10-18T19:26:57.624Z,8.45
2022-10-18T19:29:31.186Z,7.63
2022-10-18T19:32:01.403Z,7.47
2022-10-18T19:34:30.523Z,7.35
2022-10-18T19:36:57.826Z,8.27
2022-10-18T19:39:34.314Z,8.45
2022-10-18T19:42:08.754Z,9.25
2022-10-18T19:44:36.861Z,7.18
2022-10-18T19:47:10.719Z,9.00
2022-10-18T19:49:39.259Z,8.07
2022-10-18T19:52:06.029Z,9.27
2022-10-18T19:54:32.651Z,8.45
2022-10-18T19:56:59.336Z,7.57
2022-10-18T19:59:26.063Z,7.88
2022-10-18T20:01:52.731Z,7.13
2022-10-18T20:04:19.472Z,8.40
2022-10-18T20:06:46.338Z,8.25
2022-10-18T20:09:17.752Z,7.85
2022-10-18T20:11:47.298Z,6.68
2022-10-18T20:14:13.968Z,7.55
2022-10-18T20:16:40.692Z,6.45
2022-10-18T20:19:08.079Z,7.50
2022-10-18T20:21:36.076Z,7.45
2022-10-18T20:24:07.795Z,7.15
2022-10-18T20:26:35.746Z,6.15
2022-10-18T20:29:03.557Z,7.65
2022-10-18T20:31:34.491Z,7.22
2022-10-18T20:34:04.307Z,6.53
2022-10-18T20:36:32.509Z,7.35
2022-10-18T20:39:00.072Z,8.95
2022-10-18T20:41:30.434Z,7.72
2022-10-18T20:44:03.215Z,6.70
2022-10-18T20:46:32.792Z,6.55
2022-10-18T20:48:59.796Z,6.97
2022-10-18T20:51:26.960Z,7.82
2022-10-18T20:53:54.262Z,6.93
2022-10-18T20:56:26.341Z,8.10
2022-10-18T20:58:56.864Z,6.95
2022-10-18T21:01:27.139Z,6.78
2022-10-18T21:03:57.899Z,6.93
2022-10-18T21:06:34.250Z,6.97
2022-10-18T21:09:05.401Z,6.30
2022-10-18T21:11:37.864Z,5.50
2022-10-18T21:14:05.696Z,6.07
2022-10-18T21:16:35.735Z,5.20
2022-10-18T21:19:13.168Z,5.63
2022-10-18T21:21:42.529Z,6.57
2022-10-18T21:24:09.640Z,6.55
2022-10-18T21:26:36.691Z,5.43
2022-10-18T21:29:04.477Z,5.07
2022-10-18T21:31:34.932Z,5.60
2022-10-18T21:34:14.442Z,5.60
2022-10-18T21:36:43.090Z,5.43
2022-10-18T21:39:14.997Z,5.38
2022-10-18T21:41:42.822Z,5.53
2022-10-18T21:44:11.292Z,5.18
2022-10-18T21:46:39.665Z,5.43
2022-10-18T21:49:07.635Z,5.18
2022-10-18T21:51:34.811Z,6.40
2022-10-18T21:54:01.914Z,4.53
2022-10-18T21:56:32.842Z,5.70
2022-10-18T21:59:00.003Z,5.07
2022-10-18T22:01:32.152Z,6.45
2022-10-18T22:04:00.950Z,6.07
2022-10-18T22:06:30.090Z,5.65
2022-10-18T22:09:00.392Z,5.63
2022-10-18T22:11:39.212Z,5.97
2022-10-18T22:14:05.787Z,5.05
2022-10-18T22:16:32.422Z,5.43
2022-10-18T22:19:02.268Z,5.20
2022-10-18T22:21:29.485Z,4.68
2022-10-18T22:23:57.556Z,5.32
2022-10-18T22:26:30.019Z,5.25
2022-10-18T22:29:26.633Z,7.15
2022-10-18T22:31:54.501Z,5.95
2022-10-18T22:34:27.265Z,6.13
2022-10-18T22:36:54.698Z,6.95
2022-10-18T22:39:21.481Z,5.97
2022-10-18T22:41:51.985Z,6.95
2022-10-18T22:44:18.587Z,7.55
2022-10-18T22:46:45.225Z,7.00
2022-10-18T22:49:12.423Z,8.02
2022-10-18T22:51:39.558Z,6.57
2022-10-18T22:54:06.362Z,5.82
2022-10-18T22:56:32.956Z,6.57
2022-10-18T22:58:59.563Z,6.97
2022-10-18T23:01:26.234Z,6.22
2022-10-18T23:03:55.153Z,5.65
2022-10-18T23:06:25.883Z,6.85
2022-10-18T23:08:54.738Z,7.40
2022-10-18T23:11:22.500Z,6.97
2022-10-18T23:13:49.557Z,6.90
2022-10-18T23:16:17.697Z,6.13
2022-10-18T23:18:49.193Z,5.95
2022-10-18T23:21:15.793Z,7.03
2022-10-18T23:23:43.165Z,6.30
2022-10-18T23:26:17.492Z,8.63
2022-10-18T23:28:47.454Z,7.15
2022-10-18T23:31:20.966Z,6.75
2022-10-18T23:33:50.168Z,5.57
2022-10-18T23:36:17.628Z,5.72
2022-10-18T23:38:44.473Z,5.50
2022-10-18T23:41:13.583Z,6.65
2022-10-18T23:43:40.840Z,5.85
2022-10-18T23:46:08.188Z,5.45
2022-10-18T23:48:35.049Z,5.45
2022-10-18T23:51:03.084Z,5.68
2022-10-18T23:53:30.792Z,6.68
2022-10-18T23:56:07.406Z,7.18
2022-10-18T23:58:35.837Z,5.75
